sensor_id;sensor_type;location;lat;lon;timestamp;P1;durP1;ratioP1;P2;durP2;ratioP2
20557;SDS011;10437;48.156;11.530;2024-03-08T00:02:24;22.60;;;9.27;;
20557;SDS011;10437;48.156;11.530;2024-03-08T00:04:51;19.90;;;9.33;;
20557;SDS011;10437;48.156;11.530;2024-03-08T00:07:18;19.83;;;9.33;;
20557;SDS011;10437;48.156;11.530;2024-03-08T00:09:46;19.47;;;9.10;;
20557;SDS011;10437;48.156;11.530;2024-03-08T00:12:13;17.63;;;8.33;;
20557;SDS011;10437;48.156;11.530;2024-03-08T00:14:42;19.07;;;8.43;;
20557;SDS011;10437;48.156;11.530;2024-03-08T00:17:10;19.60;;;8.87;;
20557;SDS011;10437;48.156;11.530;2024-03-08T00:19:37;19.50;;;9.10;;
20557;SDS011;10437;48.156;11.530;2024-03-08T00:22:06;20.10;;;9.27;;
20557;SDS011;10437;48.156;11.530;2024-03-08T00:24:35;20.17;;;8.90;;
20557;SDS011;10437;48.156;11.530;2024-03-08T00:27:02;21.37;;;9.50;;
20557;SDS011;10437;48.156;11.530;2024-03-08T00:29:31;18.30;;;8.50;;
20557;SDS011;10437;48.156;11.530;2024-03-08T00:32:00;20.00;;;9.27;;
20557;SDS011;10437;48.156;11.530;2024-03-08T00:34:28;21.33;;;9.23;;
20557;SDS011;10437;48.156;11.530;2024-03-08T00:36:55;22.83;;;9.43;;
20557;SDS011;10437;48.156;11.530;2024-03-08T00:39:23;21.57;;;8.90;;
20557;SDS011;10437;48.156;11.530;2024-03-08T00:41:50;23.47;;;9.93;;
20557;SDS011;10437;48.156;11.530;2024-03-08T00:44:18;17.57;;;8.23;;
20557;SDS011;10437;48.156;11.530;2024-03-08T00:46:45;19.83;;;9.13;;
20557;SDS011;10437;48.156;11.530;2024-03-08T00:49:14;20.67;;;9.67;;
20557;SDS011;10437;48.156;11.530;2024-03-08T00:51:42;21.63;;;9.57;;
20557;SDS011;10437;48.156;11.530;2024-03-08T00:54:09;21.57;;;10.03;;
20557;SDS011;10437;48.156;11.530;2024-03-08T00:56:37;20.23;;;10.03;;
20557;SDS011;10437;48.156;11.530;2024-03-08T00:59:04;22.47;;;9.40;;
20557;SDS011;10437;48.156;11.530;2024-03-08T01:01:31;21.47;;;9.70;;
20557;SDS011;10437;48.156;11.530;2024-03-08T01:03:59;23.77;;;9.83;;
20557;SDS011;10437;48.156;11.530;2024-03-08T01:06:27;20.50;;;10.00;;
20557;SDS011;10437;48.156;11.530;2024-03-08T01:08:55;19.43;;;9.20;;
20557;SDS011;10437;48.156;11.530;2024-03-08T01:11:22;19.30;;;9.30;;
20557;SDS011;10437;48.156;11.530;2024-03-08T01:13:50;23.80;;;10.20;;
20557;SDS011;10437;48.156;11.530;2024-03-08T01:16:18;19.57;;;9.20;;
20557;SDS011;10437;48.156;11.530;2024-03-08T01:18:46;20.57;;;9.57;;
20557;SDS011;10437;48.156;11.530;2024-03-08T01:21:13;21.13;;;9.53;;
20557;SDS011;10437;48.156;11.530;2024-03-08T01:23:42;18.57;;;8.90;;
20557;SDS011;10437;48.156;11.530;2024-03-08T01:26:10;20.73;;;9.90;;
20557;SDS011;10437;48.156;11.530;2024-03-08T01:28:37;20.90;;;9.57;;
20557;SDS011;10437;48.156;11.530;2024-03-08T01:31:04;21.70;;;9.50;;
20557;SDS011;10437;48.156;11.530;2024-03-08T01:33:31;21.03;;;9.67;;
20557;SDS011;10437;48.156;11.530;2024-03-08T01:35:59;20.97;;;9.47;;
20557;SDS011;10437;48.156;11.530;2024-03-08T01:38:27;21.53;;;9.50;;
20557;SDS011;10437;48.156;11.530;2024-03-08T01:40:56;19.23;;;9.53;;
20557;SDS011;10437;48.156;11.530;2024-03-08T01:43:25;21.77;;;9.77;;
20557;SDS011;10437;48.156;11.530;2024-03-08T01:45:54;20.97;;;9.93;;
20557;SDS011;10437;48.156;11.530;2024-03-08T01:48:21;21.07;;;9.63;;
20557;SDS011;10437;48.156;11.530;2024-03-08T01:50:50;22.53;;;10.63;;
20557;SDS011;10437;48.156;11.530;2024-03-08T01:53:17;20.87;;;10.23;;
20557;SDS011;10437;48.156;11.530;2024-03-08T01:55:45;23.27;;;10.67;;
20557;SDS011;10437;48.156;11.530;2024-03-08T01:58:15;26.40;;;11.63;;
20557;SDS011;10437;48.156;11.530;2024-03-08T02:00:43;33.63;;;13.53;;
20557;SDS011;10437;48.156;11.530;2024-03-08T02:03:12;26.03;;;11.13;;
20557;SDS011;10437;48.156;11.530;2024-03-08T02:05:40;25.50;;;10.60;;
20557;SDS011;10437;48.156;11.530;2024-03-08T02:08:08;24.60;;;10.07;;
20557;SDS011;10437;48.156;11.530;2024-03-08T02:10:39;26.97;;;11.13;;
20557;SDS011;10437;48.156;11.530;2024-03-08T02:13:07;26.53;;;11.47;;
20557;SDS011;10437;48.156;11.530;2024-03-08T02:15:51;23.50;;;10.10;;
20557;SDS011;10437;48.156;11.530;2024-03-08T02:18:19;23.03;;;10.30;;
20557;SDS011;10437;48.156;11.530;2024-03-08T02:20:48;23.03;;;10.20;;
20557;SDS011;10437;48.156;11.530;2024-03-08T02:23:16;23.93;;;10.30;;
20557;SDS011;10437;48.156;11.530;2024-03-08T02:25:43;22.20;;;10.70;;
20557;SDS011;10437;48.156;11.530;2024-03-08T02:28:11;23.60;;;11.00;;
20557;SDS011;10437;48.156;11.530;2024-03-08T02:30:39;23.40;;;10.80;;
20557;SDS011;10437;48.156;11.530;2024-03-08T02:33:06;25.50;;;10.43;;
20557;SDS011;10437;48.156;11.530;2024-03-08T02:35:35;27.70;;;11.57;;
20557;SDS011;10437;48.156;11.530;2024-03-08T02:38:04;24.63;;;10.60;;
20557;SDS011;10437;48.156;11.530;2024-03-08T02:40:31;22.33;;;10.23;;
20557;SDS011;10437;48.156;11.530;2024-03-08T02:42:58;24.60;;;11.20;;
20557;SDS011;10437;48.156;11.530;2024-03-08T02:45:26;23.83;;;11.67;;
20557;SDS011;10437;48.156;11.530;2024-03-08T02:47:53;26.83;;;11.47;;
20557;SDS011;10437;48.156;11.530;2024-03-08T02:50:21;26.30;;;10.90;;
20557;SDS011;10437;48.156;11.530;2024-03-08T02:52:50;30.23;;;11.77;;
20557;SDS011;10437;48.156;11.530;2024-03-08T02:55:19;24.33;;;11.67;;
20557;SDS011;10437;48.156;11.530;2024-03-08T02:57:46;22.70;;;11.50;;
20557;SDS011;10437;48.156;11.530;2024-03-08T03:00:14;27.13;;;11.70;;
20557;SDS011;10437;48.156;11.530;2024-03-08T03:02:42;27.17;;;11.93;;
20557;SDS011;10437;48.156;11.530;2024-03-08T03:05:09;23.30;;;10.27;;
20557;SDS011;10437;48.156;11.530;2024-03-08T03:07:36;24.83;;;11.27;;
20557;SDS011;10437;48.156;11.530;2024-03-08T03:10:04;25.83;;;11.63;;
20557;SDS011;10437;48.156;11.530;2024-03-08T03:12:33;27.40;;;12.20;;
20557;SDS011;10437;48.156;11.530;2024-03-08T03:15:00;25.00;;;11.77;;
20557;SDS011;10437;48.156;11.530;2024-03-08T03:17:28;32.17;;;12.40;;
20557;SDS011;10437;48.156;11.530;2024-03-08T03:19:55;29.20;;;12.93;;
20557;SDS011;10437;48.156;11.530;2024-03-08T03:22:22;32.57;;;14.00;;
20557;SDS011;10437;48.156;11.530;2024-03-08T03:24:50;29.73;;;11.67;;
20557;SDS011;10437;48.156;11.530;2024-03-08T03:27:18;27.93;;;12.10;;
20557;SDS011;10437;48.156;11.530;2024-03-08T03:29:47;26.20;;;11.23;;
20557;SDS011;10437;48.156;11.530;2024-03-08T03:32:14;28.93;;;12.57;;
20557;SDS011;10437;48.156;11.530;2024-03-08T03:34:44;28.63;;;11.60;;
20557;SDS011;10437;48.156;11.530;2024-03-08T03:37:11;26.90;;;12.00;;
20557;SDS011;10437;48.156;11.530;2024-03-08T03:39:39;27.60;;;12.13;;
20557;SDS011;10437;48.156;11.530;2024-03-08T03:42:13;27.37;;;12.17;;
20557;SDS011;10437;48.156;11.530;2024-03-08T03:44:41;26.07;;;11.87;;
20557;SDS011;10437;48.156;11.530;2024-03-08T03:47:11;28.00;;;11.73;;
20557;SDS011;10437;48.156;11.530;2024-03-08T03:49:38;27.97;;;12.53;;
20557;SDS011;10437;48.156;11.530;2024-03-08T03:52:05;25.77;;;11.63;;
20557;SDS011;10437;48.156;11.530;2024-03-08T03:54:33;23.50;;;11.60;;
20557;SDS011;10437;48.156;11.530;2024-03-08T03:57:00;28.60;;;12.43;;
20557;SDS011;10437;48.156;11.530;2024-03-08T03:59:28;30.00;;;12.33;;
20557;SDS011;10437;48.156;11.530;2024-03-08T04:01:55;32.83;;;12.80;;
20557;SDS011;10437;48.156;11.530;2024-03-08T04:04:24;30.60;;;12.50;;
20557;SDS011;10437;48.156;11.530;2024-03-08T04:06:51;30.83;;;12.40;;
20557;SDS011;10437;48.156;11.530;2024-03-08T04:09:18;29.80;;;12.53;;
20557;SDS011;10437;48.156;11.530;2024-03-08T04:11:47;32.07;;;12.90;;
20557;SDS011;10437;48.156;11.530;2024-03-08T04:14:15;31.13;;;13.03;;
20557;SDS011;10437;48.156;11.530;2024-03-08T04:16:42;31.33;;;12.47;;
20557;SDS011;10437;48.156;11.530;2024-03-08T04:19:09;27.17;;;12.23;;
20557;SDS011;10437;48.156;11.530;2024-03-08T04:21:38;29.17;;;12.67;;
20557;SDS011;10437;48.156;11.530;2024-03-08T04:24:06;27.67;;;12.30;;
20557;SDS011;10437;48.156;11.530;2024-03-08T04:26:34;25.93;;;12.03;;
20557;SDS011;10437;48.156;11.530;2024-03-08T04:29:01;30.37;;;12.77;;
20557;SDS011;10437;48.156;11.530;2024-03-08T04:31:28;29.00;;;12.77;;
20557;SDS011;10437;48.156;11.530;2024-03-08T04:33:56;33.40;;;13.50;;
20557;SDS011;10437;48.156;11.530;2024-03-08T04:36:24;29.00;;;13.37;;
20557;SDS011;10437;48.156;11.530;2024-03-08T04:38:52;31.17;;;13.70;;
20557;SDS011;10437;48.156;11.530;2024-03-08T04:41:20;31.13;;;13.67;;
20557;SDS011;10437;48.156;11.530;2024-03-08T04:43:48;29.83;;;13.40;;
20557;SDS011;10437;48.156;11.530;2024-03-08T04:46:15;29.60;;;14.27;;
20557;SDS011;10437;48.156;11.530;2024-03-08T04:48:43;31.67;;;13.80;;
20557;SDS011;10437;48.156;11.530;2024-03-08T04:51:10;31.33;;;14.30;;
20557;SDS011;10437;48.156;11.530;2024-03-08T04:53:38;37.53;;;14.67;;
20557;SDS011;10437;48.156;11.530;2024-03-08T04:56:06;28.63;;;13.30;;
20557;SDS011;10437;48.156;11.530;2024-03-08T04:58:35;34.17;;;15.13;;
20557;SDS011;10437;48.156;11.530;2024-03-08T05:01:02;33.53;;;14.93;;
20557;SDS011;10437;48.156;11.530;2024-03-08T05:03:30;33.50;;;15.53;;
20557;SDS011;10437;48.156;11.530;2024-03-08T05:05:57;35.53;;;15.53;;
20557;SDS011;10437;48.156;11.530;2024-03-08T05:08:25;32.20;;;14.90;;
20557;SDS011;10437;48.156;11.530;2024-03-08T05:10:52;35.07;;;15.67;;
20557;SDS011;10437;48.156;11.530;2024-03-08T05:13:21;32.47;;;15.27;;
20557;SDS011;10437;48.156;11.530;2024-03-08T05:15:48;37.33;;;16.00;;
20557;SDS011;10437;48.156;11.530;2024-03-08T05:18:16;37.13;;;16.27;;
20557;SDS011;10437;48.156;11.530;2024-03-08T05:20:43;31.00;;;15.30;;
20557;SDS011;10437;48.156;11.530;2024-03-08T05:23:11;37.30;;;16.07;;
20557;SDS011;10437;48.156;11.530;2024-03-08T05:25:38;31.87;;;15.20;;
20557;SDS011;10437;48.156;11.530;2024-03-08T05:28:06;34.93;;;15.97;;
20557;SDS011;10437;48.156;11.530;2024-03-08T05:30:36;38.43;;;14.83;;
20557;SDS011;10437;48.156;11.530;2024-03-08T05:33:05;31.43;;;13.97;;
20557;SDS011;10437;48.156;11.530;2024-03-08T05:35:35;33.17;;;14.43;;
20557;SDS011;10437;48.156;11.530;2024-03-08T05:38:03;39.90;;;15.67;;
20557;SDS011;10437;48.156;11.530;2024-03-08T05:40:30;31.60;;;14.70;;
20557;SDS011;10437;48.156;11.530;2024-03-08T05:42:57;33.33;;;15.23;;
20557;SDS011;10437;48.156;11.530;2024-03-08T05:45:25;34.97;;;14.73;;
20557;SDS011;10437;48.156;11.530;2024-03-08T05:47:54;37.27;;;15.13;;
20557;SDS011;10437;48.156;11.530;2024-03-08T05:50:21;34.53;;;15.07;;
20557;SDS011;10437;48.156;11.530;2024-03-08T05:52:49;31.07;;;14.83;;
20557;SDS011;10437;48.156;11.530;2024-03-08T05:55:17;34.20;;;15.07;;
20557;SDS011;10437;48.156;11.530;2024-03-08T05:57:44;37.53;;;15.40;;
20557;SDS011;10437;48.156;11.530;2024-03-08T06:00:13;34.57;;;14.90;;
20557;SDS011;10437;48.156;11.530;2024-03-08T06:02:41;37.83;;;14.83;;
20557;SDS011;10437;48.156;11.530;2024-03-08T06:05:10;31.90;;;15.53;;
20557;SDS011;10437;48.156;11.530;2024-03-08T06:07:38;35.40;;;15.23;;
20557;SDS011;10437;48.156;11.530;2024-03-08T06:10:07;32.17;;;14.60;;
20557;SDS011;10437;48.156;11.530;2024-03-08T06:12:35;35.83;;;14.60;;
20557;SDS011;10437;48.156;11.530;2024-03-08T06:15:05;34.57;;;14.67;;
20557;SDS011;10437;48.156;11.530;2024-03-08T06:17:33;34.93;;;13.70;;
20557;SDS011;10437;48.156;11.530;2024-03-08T06:20:01;33.57;;;15.00;;
20557;SDS011;10437;48.156;11.530;2024-03-08T06:22:30;33.53;;;13.60;;
20557;SDS011;10437;48.156;11.530;2024-03-08T06:24:57;32.90;;;13.80;;
20557;SDS011;10437;48.156;11.530;2024-03-08T06:27:25;31.03;;;14.43;;
20557;SDS011;10437;48.156;11.530;2024-03-08T06:29:52;33.37;;;14.23;;
20557;SDS011;10437;48.156;11.530;2024-03-08T06:32:19;36.03;;;13.93;;
20557;SDS011;10437;48.156;11.530;2024-03-08T06:34:48;34.63;;;13.97;;
20557;SDS011;10437;48.156;11.530;2024-03-08T06:37:15;33.60;;;14.40;;
20557;SDS011;10437;48.156;11.530;2024-03-08T06:39:48;35.90;;;13.90;;
20557;SDS011;10437;48.156;11.530;2024-03-08T06:42:16;32.30;;;13.47;;
20557;SDS011;10437;48.156;11.530;2024-03-08T06:44:43;35.10;;;13.90;;
20557;SDS011;10437;48.156;11.530;2024-03-08T06:47:14;31.77;;;14.40;;
20557;SDS011;10437;48.156;11.530;2024-03-08T06:49:42;31.87;;;12.90;;
20557;SDS011;10437;48.156;11.530;2024-03-08T06:52:09;30.50;;;13.13;;
20557;SDS011;10437;48.156;11.530;2024-03-08T06:54:37;31.63;;;13.87;;
20557;SDS011;10437;48.156;11.530;2024-03-08T06:57:07;27.77;;;12.53;;
20557;SDS011;10437;48.156;11.530;2024-03-08T06:59:35;32.00;;;13.53;;
20557;SDS011;10437;48.156;11.530;2024-03-08T07:02:03;37.90;;;13.93;;
20557;SDS011;10437;48.156;11.530;2024-03-08T07:04:34;29.40;;;13.53;;
20557;SDS011;10437;48.156;11.530;2024-03-08T07:07:03;29.80;;;12.47;;
20557;SDS011;10437;48.156;11.530;2024-03-08T07:09:30;30.97;;;13.53;;
20557;SDS011;10437;48.156;11.530;2024-03-08T07:11:57;28.83;;;13.53;;
20557;SDS011;10437;48.156;11.530;2024-03-08T07:14:26;34.10;;;13.67;;
20557;SDS011;10437;48.156;11.530;2024-03-08T07:16:54;30.50;;;13.83;;
20557;SDS011;10437;48.156;11.530;2024-03-08T07:19:21;35.03;;;13.77;;
20557;SDS011;10437;48.156;11.530;2024-03-08T07:21:49;28.37;;;12.63;;
20557;SDS011;10437;48.156;11.530;2024-03-08T07:24:16;29.97;;;13.17;;
20557;SDS011;10437;48.156;11.530;2024-03-08T07:27:04;31.97;;;13.67;;
20557;SDS011;10437;48.156;11.530;2024-03-08T07:29:33;29.63;;;12.63;;
20557;SDS011;10437;48.156;11.530;2024-03-08T07:32:00;29.93;;;12.90;;
20557;SDS011;10437;48.156;11.530;2024-03-08T07:34:37;30.17;;;13.30;;
20557;SDS011;10437;48.156;11.530;2024-03-08T07:37:05;31.33;;;13.07;;
20557;SDS011;10437;48.156;11.530;2024-03-08T07:39:36;32.70;;;13.40;;
20557;SDS011;10437;48.156;11.530;2024-03-08T07:42:04;31.83;;;13.33;;
20557;SDS011;10437;48.156;11.530;2024-03-08T07:44:33;31.03;;;13.17;;
20557;SDS011;10437;48.156;11.530;2024-03-08T07:47:00;34.03;;;13.67;;
20557;SDS011;10437;48.156;11.530;2024-03-08T07:49:28;31.20;;;12.67;;
20557;SDS011;10437;48.156;11.530;2024-03-08T07:51:56;27.30;;;11.67;;
20557;SDS011;10437;48.156;11.530;2024-03-08T07:54:24;31.73;;;12.77;;
20557;SDS011;10437;48.156;11.530;2024-03-08T07:56:52;31.77;;;12.50;;
20557;SDS011;10437;48.156;11.530;2024-03-08T07:59:19;33.40;;;13.47;;
20557;SDS011;10437;48.156;11.530;2024-03-08T08:01:48;26.87;;;12.80;;
20557;SDS011;10437;48.156;11.530;2024-03-08T08:04:16;30.03;;;12.23;;
20557;SDS011;10437;48.156;11.530;2024-03-08T08:06:44;28.80;;;12.70;;
20557;SDS011;10437;48.156;11.530;2024-03-08T08:09:11;32.83;;;13.03;;
20557;SDS011;10437;48.156;11.530;2024-03-08T08:11:40;33.50;;;13.13;;
20557;SDS011;10437;48.156;11.530;2024-03-08T08:14:08;32.73;;;13.50;;
20557;SDS011;10437;48.156;11.530;2024-03-08T08:16:36;37.50;;;14.30;;
20557;SDS011;10437;48.156;11.530;2024-03-08T08:19:07;31.20;;;12.93;;
20557;SDS011;10437;48.156;11.530;2024-03-08T08:21:35;28.43;;;12.43;;
20557;SDS011;10437;48.156;11.530;2024-03-08T08:24:02;27.83;;;13.10;;
20557;SDS011;10437;48.156;11.530;2024-03-08T08:26:30;27.57;;;12.80;;
20557;SDS011;10437;48.156;11.530;2024-03-08T08:28:58;22.93;;;11.60;;
20557;SDS011;10437;48.156;11.530;2024-03-08T08:31:26;25.73;;;11.77;;
20557;SDS011;10437;48.156;11.530;2024-03-08T08:33:53;28.57;;;12.53;;
20557;SDS011;10437;48.156;11.530;2024-03-08T08:36:24;27.40;;;12.40;;
20557;SDS011;10437;48.156;11.530;2024-03-08T08:38:54;29.57;;;12.83;;
20557;SDS011;10437;48.156;11.530;2024-03-08T08:41:23;27.57;;;12.17;;
20557;SDS011;10437;48.156;11.530;2024-03-08T08:43:51;27.47;;;12.33;;
20557;SDS011;10437;48.156;11.530;2024-03-08T08:46:19;27.00;;;11.70;;
20557;SDS011;10437;48.156;11.530;2024-03-08T08:48:46;30.43;;;11.40;;
20557;SDS011;10437;48.156;11.530;2024-03-08T08:51:13;29.67;;;12.30;;
20557;SDS011;10437;48.156;11.530;2024-03-08T08:53:43;25.67;;;11.53;;
20557;SDS011;10437;48.156;11.530;2024-03-08T08:56:10;27.00;;;12.67;;
20557;SDS011;10437;48.156;11.530;2024-03-08T08:58:38;22.63;;;11.60;;
20557;SDS011;10437;48.156;11.530;2024-03-08T09:01:07;26.38;;;12.43;;
20557;SDS011;10437;48.156;11.530;2024-03-08T09:03:35;26.25;;;12.27;;
20557;SDS011;10437;48.156;11.530;2024-03-08T09:06:03;25.10;;;11.90;;
20557;SDS011;10437;48.156;11.530;2024-03-08T09:08:30;27.50;;;12.88;;
20557;SDS011;10437;48.156;11.530;2024-03-08T09:10:59;24.65;;;12.50;;
20557;SDS011;10437;48.156;11.530;2024-03-08T09:13:26;26.15;;;13.02;;
20557;SDS011;10437;48.156;11.530;2024-03-08T09:15:53;25.98;;;12.77;;
20557;SDS011;10437;48.156;11.530;2024-03-08T09:18:20;30.25;;;13.00;;
20557;SDS011;10437;48.156;11.530;2024-03-08T09:20:49;26.73;;;12.55;;
20557;SDS011;10437;48.156;11.530;2024-03-08T09:23:17;28.33;;;13.13;;
20557;SDS011;10437;48.156;11.530;2024-03-08T09:25:46;30.08;;;13.65;;
20557;SDS011;10437;48.156;11.530;2024-03-08T09:28:15;25.23;;;12.35;;
20557;SDS011;10437;48.156;11.530;2024-03-08T09:30:42;28.35;;;13.52;;
20557;SDS011;10437;48.156;11.530;2024-03-08T09:33:11;24.35;;;12.43;;
20557;SDS011;10437;48.156;11.530;2024-03-08T09:35:42;28.42;;;12.65;;
20557;SDS011;10437;48.156;11.530;2024-03-08T09:38:12;23.60;;;12.02;;
20557;SDS011;10437;48.156;11.530;2024-03-08T09:40:40;24.95;;;11.80;;
20557;SDS011;10437;48.156;11.530;2024-03-08T09:43:08;23.15;;;12.18;;
20557;SDS011;10437;48.156;11.530;2024-03-08T09:45:38;24.65;;;12.55;;
20557;SDS011;10437;48.156;11.530;2024-03-08T09:48:08;25.38;;;12.00;;
20557;SDS011;10437;48.156;11.530;2024-03-08T09:50:39;26.40;;;12.23;;
20557;SDS011;10437;48.156;11.530;2024-03-08T09:53:07;23.48;;;12.10;;
20557;SDS011;10437;48.156;11.530;2024-03-08T09:55:34;24.65;;;12.80;;
20557;SDS011;10437;48.156;11.530;2024-03-08T09:58:02;23.48;;;12.00;;
20557;SDS011;10437;48.156;11.530;2024-03-08T10:00:59;24.00;;;12.15;;
20557;SDS011;10437;48.156;11.530;2024-03-08T10:03:27;23.42;;;11.90;;
20557;SDS011;10437;48.156;11.530;2024-03-08T10:05:55;25.42;;;12.00;;
20557;SDS011;10437;48.156;11.530;2024-03-08T10:08:25;25.38;;;11.35;;
20557;SDS011;10437;48.156;11.530;2024-03-08T10:10:54;26.33;;;12.23;;
20557;SDS011;10437;48.156;11.530;2024-03-08T10:13:23;27.85;;;12.10;;
20557;SDS011;10437;48.156;11.530;2024-03-08T10:15:53;25.65;;;11.63;;
20557;SDS011;10437;48.156;11.530;2024-03-08T10:18:22;28.95;;;14.07;;
20557;SDS011;10437;48.156;11.530;2024-03-08T10:21:01;22.23;;;11.32;;
20557;SDS011;10437;48.156;11.530;2024-03-08T10:23:30;25.70;;;11.63;;
20557;SDS011;10437;48.156;11.530;2024-03-08T10:26:01;23.90;;;12.40;;
20557;SDS011;10437;48.156;11.530;2024-03-08T10:28:36;25.70;;;12.65;;
20557;SDS011;10437;48.156;11.530;2024-03-08T10:31:04;24.73;;;11.77;;
20557;SDS011;10437;48.156;11.530;2024-03-08T10:33:33;22.45;;;11.48;;
20557;SDS011;10437;48.156;11.530;2024-03-08T10:36:00;21.40;;;11.15;;
20557;SDS011;10437;48.156;11.530;2024-03-08T10:38:28;23.85;;;11.48;;
20557;SDS011;10437;48.156;11.530;2024-03-08T10:40:59;22.02;;;11.20;;
20557;SDS011;10437;48.156;11.530;2024-03-08T10:43:27;22.80;;;10.30;;
20557;SDS011;10437;48.156;11.530;2024-03-08T10:46:08;22.92;;;10.48;;
20557;SDS011;10437;48.156;11.530;2024-03-08T10:48:45;19.70;;;10.77;;
20557;SDS011;10437;48.156;11.530;2024-03-08T10:51:15;23.60;;;10.57;;
20557;SDS011;10437;48.156;11.530;2024-03-08T10:53:43;21.35;;;10.18;;
20557;SDS011;10437;48.156;11.530;2024-03-08T10:56:11;19.20;;;10.68;;
20557;SDS011;10437;48.156;11.530;2024-03-08T10:58:39;22.63;;;11.60;;
20557;SDS011;10437;48.156;11.530;2024-03-08T11:01:09;20.38;;;10.80;;
20557;SDS011;10437;48.156;11.530;2024-03-08T11:03:45;22.70;;;10.57;;
20557;SDS011;10437;48.156;11.530;2024-03-08T11:06:18;25.80;;;11.05;;
20557;SDS011;10437;48.156;11.530;2024-03-08T11:08:48;18.77;;;10.32;;
20557;SDS011;10437;48.156;11.530;2024-03-08T11:11:25;22.90;;;11.20;;
20557;SDS011;10437;48.156;11.530;2024-03-08T11:13:55;21.02;;;10.68;;
20557;SDS011;10437;48.156;11.530;2024-03-08T11:16:38;20.45;;;11.15;;
20557;SDS011;10437;48.156;11.530;2024-03-08T11:19:26;21.75;;;11.93;;
20557;SDS011;10437;48.156;11.530;2024-03-08T11:22:00;23.83;;;11.70;;
20557;SDS011;10437;48.156;11.530;2024-03-08T11:24:28;23.27;;;11.43;;
20557;SDS011;10437;48.156;11.530;2024-03-08T11:26:56;19.85;;;11.18;;
20557;SDS011;10437;48.156;11.530;2024-03-08T11:29:32;21.65;;;11.45;;
20557;SDS011;10437;48.156;11.530;2024-03-08T11:32:04;18.65;;;10.85;;
20557;SDS011;10437;48.156;11.530;2024-03-08T11:34:33;21.83;;;11.55;;
20557;SDS011;10437;48.156;11.530;2024-03-08T11:37:00;19.67;;;11.38;;
20557;SDS011;10437;48.156;11.530;2024-03-08T11:39:30;21.08;;;11.00;;
20557;SDS011;10437;48.156;11.530;2024-03-08T11:41:57;18.92;;;11.15;;
20557;SDS011;10437;48.156;11.530;2024-03-08T11:44:26;20.30;;;11.50;;
20557;SDS011;10437;48.156;11.530;2024-03-08T11:46:54;21.45;;;11.30;;
20557;SDS011;10437;48.156;11.530;2024-03-08T11:49:21;18.02;;;10.68;;
20557;SDS011;10437;48.156;11.530;2024-03-08T11:51:52;20.52;;;11.65;;
20557;SDS011;10437;48.156;11.530;2024-03-08T11:54:19;19.13;;;11.43;;
20557;SDS011;10437;48.156;11.530;2024-03-08T11:56:47;19.33;;;10.80;;
20557;SDS011;10437;48.156;11.530;2024-03-08T11:59:14;18.05;;;10.52;;
20557;SDS011;10437;48.156;11.530;2024-03-08T12:01:42;20.35;;;11.38;;
20557;SDS011;10437;48.156;11.530;2024-03-08T12:04:11;17.95;;;10.23;;
20557;SDS011;10437;48.156;11.530;2024-03-08T12:06:39;22.55;;;11.27;;
20557;SDS011;10437;48.156;11.530;2024-03-08T12:09:11;18.80;;;10.57;;
20557;SDS011;10437;48.156;11.530;2024-03-08T12:11:40;19.90;;;10.95;;
20557;SDS011;10437;48.156;11.530;2024-03-08T12:14:08;23.30;;;10.98;;
20557;SDS011;10437;48.156;11.530;2024-03-08T12:16:36;22.60;;;10.63;;
20557;SDS011;10437;48.156;11.530;2024-03-08T12:19:03;22.33;;;10.30;;
20557;SDS011;10437;48.156;11.530;2024-03-08T12:21:32;23.30;;;10.73;;
20557;SDS011;10437;48.156;11.530;2024-03-08T12:24:03;20.05;;;10.90;;
20557;SDS011;10437;48.156;11.530;2024-03-08T12:26:32;23.10;;;11.05;;
20557;SDS011;10437;48.156;11.530;2024-03-08T12:29:14;20.73;;;11.30;;
20557;SDS011;10437;48.156;11.530;2024-03-08T12:31:43;23.13;;;11.27;;
20557;SDS011;10437;48.156;11.530;2024-03-08T12:34:11;21.85;;;11.02;;
20557;SDS011;10437;48.156;11.530;2024-03-08T12:36:43;21.63;;;10.43;;
20557;SDS011;10437;48.156;11.530;2024-03-08T12:39:12;18.98;;;9.93;;
20557;SDS011;10437;48.156;11.530;2024-03-08T12:41:42;24.08;;;11.75;;
20557;SDS011;10437;48.156;11.530;2024-03-08T12:44:09;19.75;;;10.07;;
20557;SDS011;10437;48.156;11.530;2024-03-08T12:46:37;20.80;;;10.65;;
20557;SDS011;10437;48.156;11.530;2024-03-08T12:49:09;19.23;;;10.73;;
20557;SDS011;10437;48.156;11.530;2024-03-08T12:51:37;20.98;;;10.75;;
20557;SDS011;10437;48.156;11.530;2024-03-08T12:54:05;19.60;;;10.77;;
20557;SDS011;10437;48.156;11.530;2024-03-08T12:56:34;20.42;;;10.25;;
20557;SDS011;10437;48.156;11.530;2024-03-08T12:59:04;22.23;;;10.63;;
20557;SDS011;10437;48.156;11.530;2024-03-08T13:01:31;18.27;;;9.63;;
20557;SDS011;10437;48.156;11.530;2024-03-08T13:03:58;18.58;;;9.52;;
20557;SDS011;10437;48.156;11.530;2024-03-08T13:06:27;20.63;;;10.40;;
20557;SDS011;10437;48.156;11.530;2024-03-08T13:08:56;24.80;;;11.30;;
20557;SDS011;10437;48.156;11.530;2024-03-08T13:11:23;19.80;;;10.15;;
20557;SDS011;10437;48.156;11.530;2024-03-08T13:13:51;19.98;;;10.88;;
20557;SDS011;10437;48.156;11.530;2024-03-08T13:16:20;18.67;;;9.68;;
20557;SDS011;10437;48.156;11.530;2024-03-08T13:18:47;24.73;;;10.55;;
20557;SDS011;10437;48.156;11.530;2024-03-08T13:21:15;21.60;;;10.00;;
20557;SDS011;10437;48.156;11.530;2024-03-08T13:23:45;21.38;;;10.65;;
20557;SDS011;10437;48.156;11.530;2024-03-08T13:26:14;18.88;;;9.50;;
20557;SDS011;10437;48.156;11.530;2024-03-08T13:28:43;19.42;;;9.63;;
20557;SDS011;10437;48.156;11.530;2024-03-08T13:31:10;20.50;;;10.25;;
20557;SDS011;10437;48.156;11.530;2024-03-08T13:33:41;20.45;;;10.20;;
20557;SDS011;10437;48.156;11.530;2024-03-08T13:36:11;17.58;;;9.75;;
20557;SDS011;10437;48.156;11.530;2024-03-08T13:38:41;18.15;;;9.45;;
20557;SDS011;10437;48.156;11.530;2024-03-08T13:41:09;20.73;;;10.05;;
20557;SDS011;10437;48.156;11.530;2024-03-08T13:43:39;22.08;;;9.32;;
20557;SDS011;10437;48.156;11.530;2024-03-08T13:46:07;20.20;;;10.48;;
20557;SDS011;10437;48.156;11.530;2024-03-08T13:48:35;20.17;;;10.50;;
20557;SDS011;10437;48.156;11.530;2024-03-08T13:51:05;18.52;;;10.38;;
20557;SDS011;10437;48.156;11.530;2024-03-08T13:53:33;16.73;;;9.23;;
20557;SDS011;10437;48.156;11.530;2024-03-08T13:56:01;17.63;;;9.45;;
20557;SDS011;10437;48.156;11.530;2024-03-08T13:58:28;18.00;;;9.80;;
20557;SDS011;10437;48.156;11.530;2024-03-08T14:00:56;16.23;;;8.40;;
20557;SDS011;10437;48.156;11.530;2024-03-08T14:03:24;18.58;;;9.63;;
20557;SDS011;10437;48.156;11.530;2024-03-08T14:05:51;18.23;;;9.90;;
20557;SDS011;10437;48.156;11.530;2024-03-08T14:08:22;16.08;;;8.10;;
20557;SDS011;10437;48.156;11.530;2024-03-08T14:10:50;17.75;;;9.80;;
20557;SDS011;10437;48.156;11.530;2024-03-08T14:13:18;15.50;;;8.68;;
20557;SDS011;10437;48.156;11.530;2024-03-08T14:15:46;19.02;;;9.70;;
20557;SDS011;10437;48.156;11.530;2024-03-08T14:18:14;16.63;;;9.15;;
20557;SDS011;10437;48.156;11.530;2024-03-08T14:20:42;19.05;;;9.70;;